Hunzedijk — PCJB — position and weather

sailwx.info

Track history (hours):
 
Tides and Currents Weather Stations Pressure Air Temp Water Temp Dewpoint Dewpoint Depression Visibility Wind Speed Wind Dir Waves Ship Positions

Hunzedijk

Last reported at 2017-Nov-14 16:14 UTC. Time now 2017-Nov-24 15:14 UTC.
Position N 39°24' W 009°56'.
Warning: this ship's position is 9 days out of date.

Length 90 m; draft 6.1 m.

Type: Cargo ship. MMSI: 246765000.

Date/timePositionNaut miles runAvg speedWind from/ knotsBaromVisibWave heightAir tempDewpointWater temp
2017-Nov-14 16:14N 39°24' W 009°56'10 8.7
2017-Nov-14 15:05N 39°14' W 009°54'2 9.1
2017-Nov-14 14:55N 39°13' W 009°54'4 9.2
2017-Nov-14 14:30N 39°09' W 009°54'5 9.2
2017-Nov-14 14:00N 39°04' W 009°53'4 8.9
2017-Nov-14 13:30N 39°00' W 009°52'5 9.1
2017-Nov-14 13:00N 38°56' W 009°52'5 9.1
2017-Nov-14 12:30N 38°51' W 009°51'5 9.3
2017-Nov-14 12:00N 38°46' W 009°51'4 8.9
2017-Nov-14 11:30N 38°42' W 009°50'5 9.0
2017-Nov-14 11:00N 38°38' W 009°49'4 9.0
2017-Nov-14 10:30N 38°33' W 009°48'5 8.8
2017-Nov-14 09:57N 38°28' W 009°46'29 8.7
2017-Nov-14 06:33N 37°60' W 009°38'1 9.1
2017-Nov-14 06:27N 37°59' W 009°38'14 9.2
2017-Nov-14 04:57N 37°45' W 009°34'4 9.3
2017-Nov-14 04:31N 37°41' W 009°33'222 8.3
2017-Nov-13 01:39N 36°01' W 005°26'1 8.5
2017-Nov-13 01:31N 36°02' W 005°25'7 8.0
2017-Nov-13 00:40N 36°09' W 005°22'0 0.9
2017-Nov-13 00:30N 36°09' W 005°22'0 0.0
2017-Nov-12 21:34N 36°09' W 005°22'0 0.0
2017-Nov-12 21:19N 36°09' W 005°22'0 0.0
2017-Nov-12 20:59N 36°09' W 005°22'2 3.6
2017-Nov-12 20:29N 36°07' W 005°23'3 5.3
2017-Nov-12 20:00N 36°05' W 005°20'3 6.7
2017-Nov-12 19:30N 36°06' W 005°16'  
2017-Nov-08 22:58N 38°17' E 013°17'4 9.5
2017-Nov-08 22:29N 38°17' E 013°23'5 9.6
2017-Nov-08 22:00N 38°18' E 013°29'5 9.6
2017-Nov-08 21:28N 38°18' E 013°36'5 9.2
2017-Nov-08 20:56N 38°18' E 013°42'5 9.1
2017-Nov-08 20:20N 38°18' E 013°49'42 8.6
2017-Nov-08 15:28N 38°19' E 014°42'4 8.7
2017-Nov-08 14:59N 38°19' E 014°48'5 8.8
2017-Nov-08 14:28N 38°19' E 014°53'4 8.4
2017-Nov-08 14:00N 38°19' E 014°58'4 8.5
2017-Nov-08 13:30N 38°20' E 015°04'4 8.6
2017-Nov-08 13:00N 38°20' E 015°09'5 9.0
2017-Nov-08 12:29N 38°19' E 015°15'4 8.8
2017-Nov-08 12:00N 38°19' E 015°21'5 9.1
2017-Nov-08 11:30N 38°19' E 015°26'4 9.1
2017-Nov-08 11:00N 38°19' E 015°32'4 8.3
2017-Nov-08 10:30N 38°19' E 015°37'4 8.0
2017-Nov-08 10:00N 38°16' E 015°42'5 9.5
2017-Nov-08 09:30N 38°13' E 015°37'611.3
2017-Nov-08 09:00N 38°08' E 015°37'510.9
2017-Nov-08 08:30N 38°02' E 015°37'510.3
2017-Nov-08 08:00N 37°57' E 015°39'5 9.3
2017-Nov-08 07:30N 37°54' E 015°42'5 9.2
2017-Nov-08 07:00N 37°52' E 015°48'  
2017-Nov-06 02:31N 38°03' E 022°48'5 8.9
2017-Nov-06 02:00N 37°60' E 022°52'5 9.6
2017-Nov-06 01:30N 37°57' E 022°57'3 5.4
2017-Nov-06 00:59N 37°55' E 023°00'2 3.4
2017-Nov-06 00:31N 37°54' E 023°02'0 0.4
2017-Nov-06 00:00N 37°54' E 023°02'5 9.2
2017-Nov-05 23:30N 37°53' E 023°08'611.0
2017-Nov-05 23:00N 37°52' E 023°14'611.1
2017-Nov-05 22:31N 37°51' E 023°21'611.1
2017-Nov-05 22:01N 37°50' E 023°28'611.1
2017-Nov-05 21:31N 37°50' E 023°35'5 9.4
2017-Nov-05 21:01N 37°48' E 023°40'611.0
2017-Nov-05 20:31N 37°43' E 023°44'  
Track history (hours):
 
Tides and Currents Weather Stations Pressure Air Temp Water Temp Dewpoint Dewpoint Depression Visibility Wind Speed Wind Dir Waves Ship Positions

Hunzedijk

Last reported at 2017-Nov-14 16:14 UTC. Time now 2017-Nov-24 15:14 UTC.
Position N 39°24' W 009°56'.
Warning: this ship's position is 9 days out of date.

Length 90 m; draft 6.1 m.

Type: Cargo ship. MMSI: 246765000.

Date/timePositionNaut miles runAvg speedWind from/ knotsBaromVisibWave heightAir tempDewpointWater temp
2017-Nov-14 16:14N 39°24' W 009°56'10 8.7
2017-Nov-14 15:05N 39°14' W 009°54'2 9.1
2017-Nov-14 14:55N 39°13' W 009°54'4 9.2
2017-Nov-14 14:30N 39°09' W 009°54'5 9.2
2017-Nov-14 14:00N 39°04' W 009°53'4 8.9
2017-Nov-14 13:30N 39°00' W 009°52'5 9.1
2017-Nov-14 13:00N 38°56' W 009°52'5 9.1
2017-Nov-14 12:30N 38°51' W 009°51'5 9.3
2017-Nov-14 12:00N 38°46' W 009°51'4 8.9
2017-Nov-14 11:30N 38°42' W 009°50'5 9.0
2017-Nov-14 11:00N 38°38' W 009°49'4 9.0
2017-Nov-14 10:30N 38°33' W 009°48'5 8.8
2017-Nov-14 09:57N 38°28' W 009°46'29 8.7
2017-Nov-14 06:33N 37°60' W 009°38'1 9.1
2017-Nov-14 06:27N 37°59' W 009°38'14 9.2
2017-Nov-14 04:57N 37°45' W 009°34'4 9.3
2017-Nov-14 04:31N 37°41' W 009°33'222 8.3
2017-Nov-13 01:39N 36°01' W 005°26'1 8.5
2017-Nov-13 01:31N 36°02' W 005°25'7 8.0
2017-Nov-13 00:40N 36°09' W 005°22'0 0.9
2017-Nov-13 00:30N 36°09' W 005°22'0 0.0
2017-Nov-12 21:34N 36°09' W 005°22'0 0.0
2017-Nov-12 21:19N 36°09' W 005°22'0 0.0
2017-Nov-12 20:59N 36°09' W 005°22'2 3.6
2017-Nov-12 20:29N 36°07' W 005°23'3 5.3
2017-Nov-12 20:00N 36°05' W 005°20'3 6.7
2017-Nov-12 19:30N 36°06' W 005°16'  
2017-Nov-08 22:58N 38°17' E 013°17'4 9.5
2017-Nov-08 22:29N 38°17' E 013°23'5 9.6
2017-Nov-08 22:00N 38°18' E 013°29'5 9.6
2017-Nov-08 21:28N 38°18' E 013°36'5 9.2
2017-Nov-08 20:56N 38°18' E 013°42'5 9.1
2017-Nov-08 20:20N 38°18' E 013°49'42 8.6
2017-Nov-08 15:28N 38°19' E 014°42'4 8.7
2017-Nov-08 14:59N 38°19' E 014°48'5 8.8
2017-Nov-08 14:28N 38°19' E 014°53'4 8.4
2017-Nov-08 14:00N 38°19' E 014°58'4 8.5
2017-Nov-08 13:30N 38°20' E 015°04'4 8.6
2017-Nov-08 13:00N 38°20' E 015°09'5 9.0
2017-Nov-08 12:29N 38°19' E 015°15'4 8.8
2017-Nov-08 12:00N 38°19' E 015°21'5 9.1
2017-Nov-08 11:30N 38°19' E 015°26'4 9.1
2017-Nov-08 11:00N 38°19' E 015°32'4 8.3
2017-Nov-08 10:30N 38°19' E 015°37'4 8.0
2017-Nov-08 10:00N 38°16' E 015°42'5 9.5
2017-Nov-08 09:30N 38°13' E 015°37'611.3
2017-Nov-08 09:00N 38°08' E 015°37'510.9
2017-Nov-08 08:30N 38°02' E 015°37'510.3
2017-Nov-08 08:00N 37°57' E 015°39'5 9.3
2017-Nov-08 07:30N 37°54' E 015°42'5 9.2
2017-Nov-08 07:00N 37°52' E 015°48'  
2017-Nov-06 02:31N 38°03' E 022°48'5 8.9
2017-Nov-06 02:00N 37°60' E 022°52'5 9.6
2017-Nov-06 01:30N 37°57' E 022°57'3 5.4
2017-Nov-06 00:59N 37°55' E 023°00'2 3.4
2017-Nov-06 00:31N 37°54' E 023°02'0 0.4
2017-Nov-06 00:00N 37°54' E 023°02'5 9.2
2017-Nov-05 23:30N 37°53' E 023°08'611.0
2017-Nov-05 23:00N 37°52' E 023°14'611.1
2017-Nov-05 22:31N 37°51' E 023°21'611.1
2017-Nov-05 22:01N 37°50' E 023°28'611.1
2017-Nov-05 21:31N 37°50' E 023°35'5 9.4
2017-Nov-05 21:01N 37°48' E 023°40'611.0
2017-Nov-05 20:31N 37°43' E 023°44'  

Dump ship's entire track history